Time;durP1;ratioP1;P1;durP2;ratioP2;P2;SDS_P1;SDS_P2;PMS_P1;PMS_P2;Temp;Humidity;BMP_temperature;BMP_pressure;BME280_temperature;BME280_humidity;BME280_pressure;Samples;Min_cycle;Max_cycle;Signal;HPM_P1;HPM_P2
2022/11/27 00:01:42;;;;;;;;;;;20.60;56.50;;;;;;6079340;29;19931;-47
2022/11/27 00:04:43;;;;;;;;;;;20.30;56.40;;;;;;6078739;29;19997;-50
2022/11/27 00:07:44;;;;;;;;;;;20.60;56.40;;;;;;6079013;29;19942;-55
2022/11/27 00:10:46;;;;;;;;;;;20.30;56.00;;;;;;6079470;29;19937;-50
2022/11/27 00:13:48;;;;;;;;;;;20.70;56.40;;;;;;6076568;29;19985;-50
2022/11/27 00:16:50;;;;;;;;;;;21.20;56.40;;;;;;6074247;29;20411;-47
2022/11/27 00:19:51;;;;;;;;;;;20.60;55.70;;;;;;6076342;29;19931;-47
2022/11/27 00:22:52;;;;;;;;;;;20.20;56.20;;;;;;6076600;29;20529;-48
2022/11/27 00:25:54;;;;;;;;;;;20.70;56.40;;;;;;6078210;29;19938;-47
2022/11/27 00:28:56;;;;;;;;;;;20.50;56.30;;;;;;6078388;29;20965;-54
2022/11/27 00:31:57;;;;;;;;;;;20.80;56.40;;;;;;6076461;29;20391;-49
2022/11/27 00:34:58;;;;;;;;;;;20.40;56.30;;;;;;6077194;29;20804;-48
2022/11/27 00:37:59;;;;;;;;;;;20.70;56.50;;;;;;6076028;28;20013;-47
2022/11/27 00:41:04;;;;;;;;;;;20.30;56.20;;;;;;6080593;28;20099;-47
2022/11/27 00:44:06;;;;;;;;;;;20.30;56.00;;;;;;6077275;29;20638;-46
2022/11/27 00:47:07;;;;;;;;;;;21.30;56.50;;;;;;6095521;28;19926;-48
2022/11/27 00:50:09;;;;;;;;;;;20.60;56.40;;;;;;6076959;29;19931;-46
2022/11/27 00:53:10;;;;;;;;;;;20.70;56.50;;;;;;6079489;29;19938;-47
2022/11/27 00:56:14;;;;;;;;;;;20.70;56.40;;;;;;6077938;29;19965;-49
2022/11/27 00:59:15;;;;;;;;;;;20.50;56.20;;;;;;6075964;29;20545;-46
2022/11/27 01:02:16;;;;;;;;;;;21.10;56.70;;;;;;6074561;29;19926;-49
2022/11/27 01:05:18;;;;;;;;;;;21.00;56.50;;;;;;6090469;28;19952;-49
2022/11/27 01:08:20;;;;;;;;;;;21.00;56.50;;;;;;6078518;29;19934;-49
2022/11/27 01:11:24;;;;;;;;;;;20.30;56.20;;;;;;6080508;29;20005;-47
2022/11/27 01:14:25;;;;;;;;;;;20.60;56.20;;;;;;6076874;29;19977;-46
2022/11/27 01:17:27;;;;;;;;;;;20.90;56.20;;;;;;6077861;29;20099;-56
2022/11/27 01:20:28;;;;;;;;;;;20.20;55.80;;;;;;6075146;29;20085;-48
2022/11/27 01:23:30;;;;;;;;;;;20.20;56.10;;;;;;6079603;29;19966;-47
2022/11/27 01:26:32;;;;;;;;;;;20.50;56.30;;;;;;6078473;29;19973;-48
2022/11/27 01:29:33;;;;;;;;;;;20.40;56.30;;;;;;6075917;29;19933;-48
2022/11/27 01:32:34;;;;;;;;;;;20.70;56.60;;;;;;6077131;29;20620;-49
2022/11/27 01:35:36;;;;;;;;;;;20.20;56.30;;;;;;6078144;29;19931;-48
2022/11/27 01:38:37;;;;;;;;;;;20.30;56.20;;;;;;6072380;29;19962;-47
2022/11/27 01:41:39;;;;;;;;;;;20.20;56.20;;;;;;6078036;29;19934;-46
2022/11/27 01:44:51;;;;;;;;;;;20.70;56.40;;;;;;6079608;29;19973;-48
2022/11/27 01:47:54;;;;;;;;;;;21.00;56.40;;;;;;6078199;29;20384;-48
2022/11/27 01:50:55;;;;;;;;;;;20.40;56.30;;;;;;6081247;29;20040;-48
2022/11/27 01:53:56;;;;;;;;;;;20.20;56.40;;;;;;6079862;28;19926;-46
2022/11/27 01:57:00;;;;;;;;;;;20.00;55.90;;;;;;6078406;29;20050;-48
2022/11/27 02:00:03;;;;;;;;;;;20.80;56.50;;;;;;6078536;29;21041;-48
2022/11/27 02:03:13;;;;;;;;;;;20.60;56.40;;;;;;6079977;29;20030;-47
2022/11/27 02:06:14;;;;;;;;;;;20.40;56.50;;;;;;6081730;29;19981;-48
2022/11/27 02:09:16;;;;;;;;;;;20.70;56.60;;;;;;6080205;29;19937;-48
2022/11/27 02:12:23;;;;;;;;;;;20.20;56.30;;;;;;6084115;29;20030;-51
2022/11/27 02:15:30;;;;;;;;;;;20.60;56.30;;;;;;6082384;29;20130;-48
2022/11/27 02:18:36;;;;;;;;;;;20.90;56.40;;;;;;6080262;29;21147;-47
2022/11/27 02:21:41;;;;;;;;;;;20.80;56.60;;;;;;6083058;28;20044;-51
2022/11/27 02:24:48;;;;;;;;;;;20.20;56.20;;;;;;6083106;29;20406;-49
2022/11/27 02:28:00;;;;;;;;;;;20.70;56.40;;;;;;6083115;29;19933;-48
2022/11/27 02:31:04;;;;;;;;;;;20.30;56.20;;;;;;6080857;29;19954;-48
2022/11/27 02:34:10;;;;;;;;;;;20.30;56.40;;;;;;6082983;29;19941;-48
2022/11/27 02:37:14;;;;;;;;;;;20.80;56.50;;;;;;6078419;29;20030;-46
2022/11/27 02:40:19;;;;;;;;;;;20.60;56.50;;;;;;6077455;29;19931;-46
2022/11/27 02:43:23;;;;;;;;;;;20.20;56.30;;;;;;6074885;29;19926;-49
2022/11/27 02:46:26;;;;;;;;;;;20.10;56.20;;;;;;6081810;29;19926;-47
2022/11/27 02:49:28;;;;;;;;;;;20.50;56.30;;;;;;6080058;29;19938;-47
2022/11/27 02:52:30;;;;;;;;;;;20.50;56.50;;;;;;6070777;29;19941;-46
2022/11/27 02:55:33;;;;;;;;;;;20.40;56.50;;;;;;6068653;29;20138;-47
2022/11/27 02:58:35;;;;;;;;;;;20.30;56.40;;;;;;6070369;29;20122;-46
2022/11/27 03:01:40;;;;;;;;;;;20.20;56.40;;;;;;6068159;29;19935;-49
2022/11/27 03:04:43;;;;;;;;;;;20.50;56.60;;;;;;6074708;29;19927;-47
2022/11/27 03:07:47;;;;;;;;;;;20.20;56.40;;;;;;6068638;29;19927;-48
2022/11/27 03:10:51;;;;;;;;;;;20.30;56.40;;;;;;6071868;29;20716;-47
2022/11/27 03:13:53;;;;;;;;;;;20.20;56.50;;;;;;6069698;29;20576;-46
2022/11/27 03:17:00;;;;;;;;;;;20.60;56.60;;;;;;6072356;29;19926;-49
2022/11/27 03:20:06;;;;;;;;;;;21.10;56.90;;;;;;6069816;29;20747;-48
2022/11/27 03:23:08;;;;;;;;;;;20.60;56.80;;;;;;6065700;29;20065;-46
2022/11/27 03:26:09;;;;;;;;;;;20.80;56.90;;;;;;6068319;29;20844;-45
2022/11/27 03:29:12;;;;;;;;;;;20.60;56.90;;;;;;6080088;28;20295;-47
2022/11/27 03:32:15;;;;;;;;;;;20.80;56.80;;;;;;6065642;29;19927;-47
2022/11/27 03:35:19;;;;;;;;;;;20.10;56.50;;;;;;6065684;29;20409;-48
2022/11/27 03:38:20;;;;;;;;;;;20.40;56.60;;;;;;6063427;29;19953;-48
2022/11/27 03:41:26;;;;;;;;;;;20.70;57.00;;;;;;6065773;29;19957;-49
2022/11/27 03:44:30;;;;;;;;;;;20.30;56.60;;;;;;6066995;29;20053;-48
2022/11/27 03:47:40;;;;;;;;;;;20.60;56.80;;;;;;6063102;29;20492;-48
2022/11/27 03:50:47;;;;;;;;;;;20.80;56.80;;;;;;6067054;29;19931;-47
2022/11/27 03:53:52;;;;;;;;;;;20.20;56.60;;;;;;6067800;29;20085;-47
2022/11/27 03:56:55;;;;;;;;;;;20.60;56.90;;;;;;6067920;29;20098;-46
2022/11/27 03:59:59;;;;;;;;;;;20.60;56.90;;;;;;6066625;29;19992;-46
2022/11/27 04:03:01;;;;;;;;;;;20.30;56.60;;;;;;6066640;28;20462;-48
2022/11/27 04:06:02;;;;;;;;;;;20.70;56.90;;;;;;6066827;29;19997;-47
2022/11/27 04:09:04;;;;;;;;;;;20.40;57.00;;;;;;6067536;29;19970;-46
2022/11/27 04:12:05;;;;;;;;;;;20.50;57.40;;;;;;6066998;29;21293;-46
2022/11/27 04:15:07;;;;;;;;;;;20.40;56.90;;;;;;6067778;29;20355;-48
2022/11/27 04:18:09;;;;;;;;;;;20.70;57.10;;;;;;6066965;29;20565;-47
2022/11/27 04:21:11;;;;;;;;;;;20.70;56.60;;;;;;6067603;29;19931;-47
2022/11/27 04:24:12;;;;;;;;;;;20.40;56.50;;;;;;6066275;29;20327;-46
2022/11/27 04:27:14;;;;;;;;;;;20.00;56.80;;;;;;6067324;29;20427;-46
2022/11/27 04:30:15;;;;;;;;;;;20.60;57.20;;;;;;6064717;29;20481;-48
2022/11/27 04:33:17;;;;;;;;;;;20.30;57.00;;;;;;6063629;29;20369;-48
2022/11/27 04:36:19;;;;;;;;;;;20.70;57.10;;;;;;6060436;29;20146;-47
2022/11/27 04:39:20;;;;;;;;;;;20.70;57.30;;;;;;6065787;29;19926;-51
2022/11/27 04:42:21;;;;;;;;;;;20.30;57.10;;;;;;6066870;29;19933;-47
2022/11/27 04:45:22;;;;;;;;;;;20.40;57.10;;;;;;6067611;29;20490;-50
2022/11/27 04:48:24;;;;;;;;;;;20.80;57.40;;;;;;6067281;29;20034;-49
2022/11/27 04:51:26;;;;;;;;;;;21.10;57.40;;;;;;6065898;29;20041;-46
2022/11/27 04:54:27;;;;;;;;;;;20.60;57.20;;;;;;6065573;29;20538;-49
2022/11/27 04:57:28;;;;;;;;;;;20.30;57.20;;;;;;6064044;29;20451;-49
2022/11/27 05:00:30;;;;;;;;;;;20.20;57.10;;;;;;6063367;29;21012;-50
2022/11/27 05:03:31;;;;;;;;;;;20.70;57.50;;;;;;6063750;29;20879;-48
2022/11/27 05:06:33;;;;;;;;;;;20.60;57.20;;;;;;6067452;29;20495;-47
2022/11/27 05:09:34;;;;;;;;;;;20.40;57.30;;;;;;6066112;29;20271;-50
2022/11/27 05:12:35;;;;;;;;;;;20.40;57.40;;;;;;6063368;29;20042;-47
2022/11/27 05:15:37;;;;;;;;;;;20.30;57.20;;;;;;6065232;29;20981;-46
2022/11/27 05:18:39;;;;;;;;;;;20.10;56.90;;;;;;6066716;29;19935;-46
2022/11/27 05:21:40;;;;;;;;;;;21.20;57.60;;;;;;6062539;29;20759;-47
2022/11/27 05:24:41;;;;;;;;;;;20.70;57.40;;;;;;6067004;29;19997;-46
2022/11/27 05:27:43;;;;;;;;;;;20.30;57.40;;;;;;6068066;29;19926;-47
2022/11/27 05:30:45;;;;;;;;;;;20.30;57.40;;;;;;6066238;29;20216;-47
2022/11/27 05:33:47;;;;;;;;;;;20.70;57.50;;;;;;6064915;29;20331;-46
2022/11/27 05:36:48;;;;;;;;;;;20.60;57.50;;;;;;6063758;29;20140;-48
2022/11/27 05:39:49;;;;;;;;;;;20.90;57.80;;;;;;6066561;29;19937;-46
2022/11/27 05:42:50;;;;;;;;;;;20.50;57.60;;;;;;6064367;29;19927;-48
2022/11/27 05:45:52;;;;;;;;;;;20.30;57.60;;;;;;6063898;29;19997;-46
2022/11/27 05:48:54;;;;;;;;;;;20.60;57.60;;;;;;6062311;29;19926;-45
2022/11/27 05:51:55;;;;;;;;;;;21.10;57.80;;;;;;6065087;29;20038;-47
2022/11/27 05:54:56;;;;;;;;;;;20.50;57.40;;;;;;6066828;29;19957;-50
2022/11/27 05:57:58;;;;;;;;;;;20.40;57.50;;;;;;6061627;29;19937;-46
2022/11/27 06:00:59;;;;;;;;;;;20.70;57.70;;;;;;6062309;29;19935;-46
2022/11/27 06:04:01;;;;;;;;;;;20.30;57.30;;;;;;6062471;29;19955;-48
2022/11/27 06:07:02;;;;;;;;;;;20.50;57.50;;;;;;6063451;29;20520;-46
2022/11/27 06:10:04;;;;;;;;;;;20.40;57.60;;;;;;6063790;28;19930;-46
2022/11/27 06:13:06;;;;;;;;;;;20.30;57.40;;;;;;6066842;29;20018;-47
2022/11/27 06:16:07;;;;;;;;;;;20.50;57.60;;;;;;6062574;29;19931;-47
2022/11/27 06:19:10;;;;;;;;;;;20.40;57.40;;;;;;6065331;29;20496;-46
2022/11/27 06:22:11;;;;;;;;;;;21.00;57.80;;;;;;6063320;28;20298;-47
2022/11/27 06:25:12;;;;;;;;;;;20.50;57.50;;;;;;6064417;29;20020;-49
2022/11/27 06:28:13;;;;;;;;;;;20.20;57.60;;;;;;6064448;28;19930;-49
2022/11/27 06:31:16;;;;;;;;;;;20.90;57.90;;;;;;6067432;29;20553;-47
2022/11/27 06:34:20;;;;;;;;;;;20.30;57.60;;;;;;6066562;29;20902;-46
2022/11/27 06:37:21;;;;;;;;;;;20.40;57.60;;;;;;6068054;29;20371;-47
2022/11/27 06:40:22;;;;;;;;;;;20.30;57.70;;;;;;6062784;29;21017;-48
2022/11/27 06:43:24;;;;;;;;;;;20.70;58.00;;;;;;6065952;29;19981;-47
2022/11/27 06:46:25;;;;;;;;;;;20.90;58.00;;;;;;6063204;29;20457;-47
2022/11/27 06:49:27;;;;;;;;;;;20.40;57.60;;;;;;6066297;29;20019;-48
2022/11/27 06:52:29;;;;;;;;;;;20.90;57.90;;;;;;6069314;29;20264;-49
2022/11/27 06:55:31;;;;;;;;;;;20.80;57.90;;;;;;6067504;29;19937;-47
2022/11/27 06:58:32;;;;;;;;;;;20.40;58.00;;;;;;6065145;29;20009;-46
2022/11/27 07:01:33;;;;;;;;;;;21.10;57.80;;;;;;6063149;29;20209;-49
2022/11/27 07:04:36;;;;;;;;;;;20.60;58.10;;;;;;6064953;29;20554;-49
2022/11/27 07:07:37;;;;;;;;;;;20.40;57.80;;;;;;6066336;29;19962;-46
2022/11/27 07:10:44;;;;;;;;;;;20.80;58.00;;;;;;6062922;28;19962;-46
2022/11/27 07:13:46;;;;;;;;;;;20.40;57.70;;;;;;6064529;29;19981;-46
2022/11/27 07:16:47;;;;;;;;;;;20.80;58.10;;;;;;6063999;29;20505;-46
2022/11/27 07:19:49;;;;;;;;;;;20.80;58.20;;;;;;6064986;29;20392;-46
2022/11/27 07:22:50;;;;;;;;;;;20.70;58.10;;;;;;6065202;28;20228;-47
2022/11/27 07:25:52;;;;;;;;;;;20.70;58.20;;;;;;6064599;29;20057;-46
2022/11/27 07:28:53;;;;;;;;;;;20.30;58.00;;;;;;6065427;29;20136;-48
2022/11/27 07:31:56;;;;;;;;;;;20.60;58.10;;;;;;6065356;29;20186;-47
2022/11/27 07:34:58;;;;;;;;;;;21.00;58.30;;;;;;6066172;28;19927;-48
2022/11/27 07:37:59;;;;;;;;;;;20.70;58.20;;;;;;6063633;29;20287;-47
2022/11/27 07:41:00;;;;;;;;;;;20.40;58.10;;;;;;6066426;29;19981;-47
2022/11/27 07:44:02;;;;;;;;;;;20.60;58.20;;;;;;6065511;29;20171;-46
2022/11/27 07:47:03;;;;;;;;;;;20.30;58.00;;;;;;6064315;29;20371;-47
2022/11/27 07:50:07;;;;;;;;;;;20.40;58.20;;;;;;6062161;29;19927;-47
2022/11/27 07:53:08;;;;;;;;;;;21.10;58.40;;;;;;6060937;29;19930;-46
2022/11/27 07:56:10;;;;;;;;;;;20.60;58.00;;;;;;6061910;29;20065;-46
2022/11/27 07:59:12;;;;;;;;;;;20.30;58.10;;;;;;6065792;29;20057;-48
2022/11/27 08:02:13;;;;;;;;;;;20.80;58.50;;;;;;6062379;29;20017;-46
2022/11/27 08:05:15;;;;;;;;;;;20.70;58.30;;;;;;6060997;29;19937;-47
2022/11/27 08:08:16;;;;;;;;;;;20.80;58.30;;;;;;6060324;29;20041;-47
2022/11/27 08:11:19;;;;;;;;;;;20.30;57.70;;;;;;6062203;29;20644;-46
2022/11/27 08:14:20;;;;;;;;;;;20.80;58.30;;;;;;6064393;29;19946;-46
2022/11/27 08:17:22;;;;;;;;;;;20.40;58.30;;;;;;6064261;29;20039;-47
2022/11/27 08:20:24;;;;;;;;;;;20.50;58.30;;;;;;6064897;29;20045;-46
2022/11/27 08:23:25;;;;;;;;;;;20.80;58.40;;;;;;6063067;28;20004;-47
2022/11/27 08:26:27;;;;;;;;;;;20.20;58.20;;;;;;6063832;29;19941;-48
2022/11/27 08:29:28;;;;;;;;;;;20.60;58.20;;;;;;6062687;28;20243;-49
2022/11/27 08:32:37;;;;;;;;;;;20.70;58.30;;;;;;6063365;29;20478;-47
2022/11/27 08:35:39;;;;;;;;;;;21.00;58.50;;;;;;6054635;29;19931;-49
2022/11/27 08:38:42;;;;;;;;;;;20.40;58.30;;;;;;6061425;29;19942;-47
2022/11/27 08:41:43;;;;;;;;;;;20.10;58.30;;;;;;6060995;29;20188;-47
2022/11/27 08:44:44;;;;;;;;;;;20.80;58.60;;;;;;6057063;29;20466;-48
2022/11/27 08:47:45;;;;;;;;;;;20.80;58.60;;;;;;6061126;29;19931;-47
2022/11/27 08:50:48;;;;;;;;;;;20.60;58.70;;;;;;6057310;29;20213;-47
2022/11/27 08:53:49;;;;;;;;;;;20.80;58.70;;;;;;6064662;29;20448;-49
2022/11/27 08:56:51;;;;;;;;;;;20.50;58.40;;;;;;6063607;29;20120;-48
2022/11/27 08:59:52;;;;;;;;;;;20.80;58.70;;;;;;6059119;29;20631;-46
2022/11/27 09:02:54;;;;;;;;;;;21.10;59.00;;;;;;6059752;29;20485;-46
2022/11/27 09:05:55;;;;;;;;;;;20.80;58.50;;;;;;6059320;29;19926;-46
2022/11/27 09:08:58;;;;;;;;;;;20.50;59.30;;;;;;6060093;29;20243;-48
2022/11/27 09:11:59;;;;;;;;;;;20.70;58.80;;;;;;6057451;28;20371;-48
2022/11/27 09:15:01;;;;;;;;;;;20.30;58.60;;;;;;6061713;29;20017;-50
2022/11/27 09:18:02;;;;;;;;;;;20.60;58.80;;;;;;6059238;29;20197;-46
2022/11/27 09:21:05;;;;;;;;;;;20.90;59.00;;;;;;6062318;29;20550;-50
2022/11/27 09:24:08;;;;;;;;;;;20.70;58.80;;;;;;6062326;29;19941;-46
2022/11/27 09:27:09;;;;;;;;;;;21.00;58.80;;;;;;6060756;29;20450;-48
2022/11/27 09:30:11;;;;;;;;;;;20.40;58.80;;;;;;6058075;29;20307;-46
2022/11/27 09:33:13;;;;;;;;;;;20.70;58.80;;;;;;6061903;29;19930;-47
2022/11/27 09:36:15;;;;;;;;;;;20.60;58.90;;;;;;6057476;29;20355;-47
2022/11/27 09:39:18;;;;;;;;;;;20.80;59.00;;;;;;6065788;29;20880;-46
2022/11/27 09:42:27;;;;;;;;;;;20.40;58.80;;;;;;6062175;29;19937;-47
2022/11/27 09:45:29;;;;;;;;;;;20.70;58.60;;;;;;6061099;29;20356;-46
2022/11/27 09:48:33;;;;;;;;;;;20.20;58.80;;;;;;6058883;29;20014;-47
2022/11/27 09:51:38;;;;;;;;;;;20.80;59.00;;;;;;6054216;29;20844;-46
2022/11/27 09:54:42;;;;;;;;;;;20.60;59.10;;;;;;6061795;29;19931;-45
2022/11/27 09:57:52;;;;;;;;;;;21.00;59.30;;;;;;6060796;29;19935;-46
2022/11/27 10:00:54;;;;;;;;;;;20.50;58.90;;;;;;6057822;29;19930;-46
2022/11/27 10:03:55;;;;;;;;;;;20.70;59.30;;;;;;6061247;29;19959;-48
2022/11/27 10:07:03;;;;;;;;;;;20.70;59.30;;;;;;6063507;29;20273;-46
2022/11/27 10:10:10;;;;;;;;;;;20.50;58.90;;;;;;6058670;28;19931;-46
2022/11/27 10:13:23;;;;;;;;;;;20.60;59.10;;;;;;6060958;29;20248;-47
2022/11/27 10:16:28;;;;;;;;;;;20.80;59.30;;;;;;6061910;29;20319;-47
2022/11/27 10:19:31;;;;;;;;;;;20.80;59.30;;;;;;6058792;29;20416;-48
2022/11/27 10:22:40;;;;;;;;;;;20.80;59.20;;;;;;6053368;29;19930;-48
2022/11/27 10:25:43;;;;;;;;;;;20.30;59.10;;;;;;6055346;29;19931;-48
2022/11/27 10:28:49;;;;;;;;;;;20.30;59.10;;;;;;6055694;29;20450;-46
2022/11/27 10:31:52;;;;;;;;;;;20.40;59.20;;;;;;6057104;29;20691;-48
2022/11/27 10:34:55;;;;;;;;;;;20.80;59.30;;;;;;6056379;29;20748;-47
2022/11/27 10:37:59;;;;;;;;;;;20.80;59.40;;;;;;6055535;29;20017;-47
2022/11/27 10:41:10;;;;;;;;;;;20.80;59.50;;;;;;6057806;29;20108;-46
2022/11/27 10:44:32;;;;;;;;;;;20.80;59.30;;;;;;6045812;29;19931;-48
2022/11/27 10:47:33;;;;;;;;;;;20.90;59.40;;;;;;6057847;29;20687;-46
2022/11/27 10:50:35;;;;;;;;;;;20.60;59.30;;;;;;6056134;29;19977;-46
2022/11/27 10:53:39;;;;;;;;;;;20.30;59.30;;;;;;6057784;29;19926;-48
2022/11/27 10:56:49;;;;;;;;;;;20.60;59.40;;;;;;6060565;29;20238;-47
2022/11/27 11:00:00;;;;;;;;;;;21.30;59.70;;;;;;6058750;29;20410;-46
2022/11/27 11:03:01;;;;;;;;;;;20.90;59.60;;;;;;6055043;29;21725;-47
2022/11/27 11:06:05;;;;;;;;;;;21.00;59.60;;;;;;6061967;29;20018;-46
2022/11/27 11:09:23;;;;;;;;;;;21.00;59.60;;;;;;6057462;29;20007;-47
2022/11/27 11:12:24;;;;;;;;;;;20.70;59.50;;;;;;6056593;29;20802;-49
2022/11/27 11:15:26;;;;;;;;;;;21.10;59.90;;;;;;6057753;29;19990;-46
2022/11/27 11:18:28;;;;;;;;;;;20.30;59.40;;;;;;6061940;29;19931;-47
2022/11/27 11:21:31;;;;;;;;;;;20.80;59.70;;;;;;6053654;29;20828;-47
2022/11/27 11:24:36;;;;;;;;;;;21.10;60.00;;;;;;6062088;28;20844;-47
2022/11/27 11:27:41;;;;;;;;;;;20.70;59.60;;;;;;6061600;29;20274;-47
2022/11/27 11:30:51;;;;;;;;;;;21.10;60.00;;;;;;6058960;29;20382;-46
2022/11/27 11:33:55;;;;;;;;;;;20.90;59.90;;;;;;6061088;29;19930;-48
2022/11/27 11:36:57;;;;;;;;;;;21.00;59.80;;;;;;6057753;29;20389;-47
2022/11/27 11:40:02;;;;;;;;;;;20.80;59.80;;;;;;6062386;29;20729;-46
2022/11/27 11:43:06;;;;;;;;;;;20.60;59.70;;;;;;6058185;29;20741;-47
2022/11/27 11:46:16;;;;;;;;;;;20.70;59.60;;;;;;6057185;29;19939;-47
2022/11/27 11:49:21;;;;;;;;;;;20.90;59.70;;;;;;6060088;29;20178;-47
2022/11/27 11:52:29;;;;;;;;;;;20.60;59.70;;;;;;6058644;29;20514;-46
2022/11/27 11:55:34;;;;;;;;;;;20.90;60.00;;;;;;6059092;29;19953;-48
2022/11/27 11:58:43;;;;;;;;;;;20.50;59.90;;;;;;6053669;29;20008;-47
2022/11/27 12:01:53;;;;;;;;;;;20.90;59.60;;;;;;6056586;29;20532;-47
2022/11/27 12:05:03;;;;;;;;;;;20.40;59.80;;;;;;6059110;29;20522;-47
2022/11/27 12:08:10;;;;;;;;;;;21.10;60.20;;;;;;6055628;29;19962;-47
2022/11/27 12:11:14;;;;;;;;;;;20.50;59.80;;;;;;6059589;29;19934;-48
2022/11/27 12:14:19;;;;;;;;;;;20.70;60.00;;;;;;6060044;29;20033;-48
2022/11/27 12:17:28;;;;;;;;;;;20.40;59.80;;;;;;6052910;29;19933;-48
2022/11/27 12:20:38;;;;;;;;;;;20.70;60.00;;;;;;6059997;29;19970;-46
2022/11/27 12:23:49;;;;;;;;;;;20.80;60.00;;;;;;6064950;29;19961;-51
2022/11/27 12:26:57;;;;;;;;;;;20.50;60.50;;;;;;6058300;29;19926;-46
2022/11/27 12:30:06;;;;;;;;;;;20.60;60.00;;;;;;6060515;29;19937;-46
2022/11/27 12:33:15;;;;;;;;;;;20.90;60.10;;;;;;6061639;29;20646;-50
2022/11/27 12:36:22;;;;;;;;;;;20.80;60.00;;;;;;6060394;28;19980;-48
2022/11/27 12:39:24;;;;;;;;;;;21.00;60.20;;;;;;6059089;29;19983;-47
2022/11/27 12:42:30;;;;;;;;;;;20.30;60.00;;;;;;6060603;29;19961;-48
2022/11/27 12:45:34;;;;;;;;;;;21.30;60.60;;;;;;6057806;29;20446;-46
2022/11/27 12:48:38;;;;;;;;;;;20.70;60.20;;;;;;6055102;28;20504;-49
2022/11/27 12:51:43;;;;;;;;;;;20.50;59.90;;;;;;6057489;29;19954;-48
2022/11/27 12:54:47;;;;;;;;;;;20.40;60.10;;;;;;6052875;29;19927;-47
2022/11/27 12:57:51;;;;;;;;;;;21.10;60.40;;;;;;6052233;29;19992;-47
2022/11/27 13:00:57;;;;;;;;;;;20.70;60.10;;;;;;6045614;29;20403;-47
2022/11/27 13:04:02;;;;;;;;;;;20.90;60.30;;;;;;6050668;29;20441;-48
2022/11/27 13:07:05;;;;;;;;;;;20.90;60.10;;;;;;6046955;29;20462;-46
2022/11/27 13:10:12;;;;;;;;;;;21.20;60.50;;;;;;6049200;29;20418;-48
2022/11/27 13:13:16;;;;;;;;;;;20.70;60.20;;;;;;6054502;29;20403;-47
2022/11/27 13:16:20;;;;;;;;;;;21.00;60.50;;;;;;6042724;29;19935;-46
2022/11/27 13:19:24;;;;;;;;;;;20.90;60.50;;;;;;6045624;29;20176;-48
2022/11/27 13:22:27;;;;;;;;;;;21.10;60.60;;;;;;6054766;29;20159;-49
2022/11/27 13:25:30;;;;;;;;;;;20.50;60.20;;;;;;6044752;29;20105;-49
2022/11/27 13:28:35;;;;;;;;;;;20.30;60.10;;;;;;6047818;29;20447;-48
2022/11/27 13:31:38;;;;;;;;;;;20.60;60.10;;;;;;6060960;28;20153;-49
2022/11/27 13:34:42;;;;;;;;;;;20.60;60.20;;;;;;6046522;29;20601;-46
2022/11/27 13:37:44;;;;;;;;;;;20.70;60.20;;;;;;6052001;29;20365;-47
2022/11/27 13:40:46;;;;;;;;;;;20.50;60.20;;;;;;6057884;29;19937;-51
2022/11/27 13:43:49;;;;;;;;;;;20.70;60.20;;;;;;6059727;29;20149;-47
2022/11/27 13:46:53;;;;;;;;;;;20.90;60.30;;;;;;6054946;29;19998;-48
2022/11/27 13:49:57;;;;;;;;;;;20.50;60.30;;;;;;6061236;28;19930;-50
2022/11/27 13:53:02;;;;;;;;;;;21.40;60.80;;;;;;6059066;29;20139;-46
2022/11/27 13:56:04;;;;;;;;;;;20.70;60.40;;;;;;6057160;29;21323;-46
2022/11/27 13:59:15;;;;;;;;;;;21.00;60.40;;;;;;6057000;29;19926;-47
2022/11/27 14:02:16;;;;;;;;;;;20.60;60.30;;;;;;6056671;29;19967;-49
2022/11/27 14:05:19;;;;;;;;;;;21.10;60.70;;;;;;6061561;29;19931;-45
2022/11/27 14:08:22;;;;;;;;;;;20.70;60.50;;;;;;6057263;29;20453;-48
2022/11/27 14:11:32;;;;;;;;;;;20.90;60.50;;;;;;6057051;29;19931;-46
2022/11/27 14:14:35;;;;;;;;;;;20.80;60.40;;;;;;6056718;29;20795;-47
2022/11/27 14:17:38;;;;;;;;;;;20.80;60.50;;;;;;6055806;29;20571;-46
2022/11/27 14:20:45;;;;;;;;;;;20.90;60.60;;;;;;6055593;29;20013;-48
2022/11/27 14:23:48;;;;;;;;;;;21.30;60.80;;;;;;6052100;29;19973;-46
2022/11/27 14:26:50;;;;;;;;;;;20.80;60.60;;;;;;6050008;29;20205;-47
2022/11/27 14:29:52;;;;;;;;;;;21.00;61.00;;;;;;6051985;29;19927;-49
2022/11/27 14:32:53;;;;;;;;;;;20.80;60.70;;;;;;6052949;29;19942;-48
2022/11/27 14:35:55;;;;;;;;;;;20.50;60.60;;;;;;6048089;29;20524;-47
2022/11/27 14:38:57;;;;;;;;;;;20.70;60.60;;;;;;6047924;29;20817;-47
2022/11/27 14:41:59;;;;;;;;;;;20.50;60.40;;;;;;6048190;29;20073;-47
2022/11/27 14:45:02;;;;;;;;;;;20.70;60.60;;;;;;6045622;29;20057;-47
2022/11/27 14:48:04;;;;;;;;;;;21.30;61.00;;;;;;6044082;29;21009;-48
2022/11/27 14:51:05;;;;;;;;;;;20.80;60.70;;;;;;6050667;28;19977;-48
2022/11/27 14:54:10;;;;;;;;;;;20.40;60.50;;;;;;6052635;29;20689;-47
2022/11/27 14:57:14;;;;;;;;;;;20.80;60.60;;;;;;6049896;29;20074;-46
2022/11/27 15:00:17;;;;;;;;;;;20.40;60.30;;;;;;6055180;29;20203;-48
2022/11/27 15:03:19;;;;;;;;;;;20.90;61.30;;;;;;6048306;29;20237;-48
2022/11/27 15:06:21;;;;;;;;;;;20.90;60.60;;;;;;6048258;29;20069;-46
2022/11/27 15:09:23;;;;;;;;;;;20.40;60.30;;;;;;6049455;29;20473;-46
2022/11/27 15:12:34;;;;;;;;;;;21.20;60.90;;;;;;6052633;29;19969;-46
2022/11/27 15:15:38;;;;;;;;;;;20.70;60.60;;;;;;6055615;28;20443;-48
2022/11/27 15:18:40;;;;;;;;;;;21.00;61.00;;;;;;6055470;29;20348;-47
2022/11/27 15:21:41;;;;;;;;;;;21.30;61.10;;;;;;6051097;29;19931;-47
2022/11/27 15:24:43;;;;;;;;;;;20.40;60.50;;;;;;6051109;29;20545;-47
2022/11/27 15:27:45;;;;;;;;;;;21.10;61.00;;;;;;6055559;28;20274;-46
2022/11/27 15:30:47;;;;;;;;;;;21.10;61.00;;;;;;6052579;29;20465;-49
2022/11/27 15:33:57;;;;;;;;;;;20.60;60.70;;;;;;6054449;29;20621;-47
2022/11/27 15:37:02;;;;;;;;;;;20.40;60.60;;;;;;6051362;29;20485;-48
2022/11/27 15:40:14;;;;;;;;;;;20.60;60.80;;;;;;6055539;29;20399;-48
2022/11/27 15:43:16;;;;;;;;;;;20.60;60.60;;;;;;6050885;29;20807;-46
2022/11/27 15:46:22;;;;;;;;;;;20.80;61.00;;;;;;6058042;29;20345;-47
2022/11/27 15:49:23;;;;;;;;;;;21.20;61.10;;;;;;6056769;29;20094;-48
2022/11/27 15:52:25;;;;;;;;;;;20.70;61.00;;;;;;6055447;29;20700;-46
2022/11/27 15:55:26;;;;;;;;;;;21.10;61.00;;;;;;6054655;29;20562;-47
2022/11/27 15:58:28;;;;;;;;;;;20.70;61.00;;;;;;6053717;29;20276;-51
2022/11/27 16:01:29;;;;;;;;;;;21.20;61.30;;;;;;6044166;29;20010;-47
2022/11/27 16:04:31;;;;;;;;;;;20.80;61.00;;;;;;6048931;29;20874;-48
2022/11/27 16:07:33;;;;;;;;;;;20.80;61.20;;;;;;6045301;28;19926;-47
2022/11/27 16:10:34;;;;;;;;;;;20.60;60.90;;;;;;6048887;29;24254;-46
2022/11/27 16:13:35;;;;;;;;;;;21.00;61.30;;;;;;6046232;29;20853;-47
2022/11/27 16:16:37;;;;;;;;;;;20.70;61.00;;;;;;6051053;29;20074;-54
2022/11/27 16:19:39;;;;;;;;;;;20.50;60.80;;;;;;6054504;29;19933;-48
2022/11/27 16:22:40;;;;;;;;;;;20.80;61.20;;;;;;6050377;29;21061;-47
2022/11/27 16:25:41;;;;;;;;;;;20.70;61.00;;;;;;6058589;29;20279;-47
2022/11/27 16:28:43;;;;;;;;;;;20.70;61.00;;;;;;6053422;29;20681;-48
2022/11/27 16:31:45;;;;;;;;;;;21.10;61.40;;;;;;6055416;29;21238;-48
2022/11/27 16:34:48;;;;;;;;;;;21.00;61.10;;;;;;6039013;29;20045;-49
2022/11/27 16:37:50;;;;;;;;;;;20.50;60.70;;;;;;6042638;29;19956;-47
2022/11/27 16:40:58;;;;;;;;;;;20.90;61.20;;;;;;6045172;28;20032;-48
2022/11/27 16:44:01;;;;;;;;;;;20.50;60.90;;;;;;6049028;29;21438;-46
2022/11/27 16:47:04;;;;;;;;;;;20.90;59.50;;;;;;6035158;29;21144;-47
2022/11/27 16:50:05;;;;;;;;;;;21.20;61.50;;;;;;6039746;29;20468;-47
2022/11/27 16:53:08;;;;;;;;;;;20.40;60.80;;;;;;6044889;29;20342;-46
2022/11/27 16:56:10;;;;;;;;;;;20.90;61.40;;;;;;6054808;29;20284;-47
2022/11/27 16:59:13;;;;;;;;;;;20.30;60.80;;;;;;6042667;29;19934;-46
2022/11/27 17:02:15;;;;;;;;;;;21.30;62.10;;;;;;6045132;29;20045;-47
2022/11/27 17:05:16;;;;;;;;;;;20.70;61.20;;;;;;6051631;29;20818;-51
2022/11/27 17:08:17;;;;;;;;;;;20.40;61.10;;;;;;6047380;29;20881;-51
2022/11/27 17:11:20;;;;;;;;;;;20.90;61.30;;;;;;6055112;28;20048;-49
2022/11/27 17:14:21;;;;;;;;;;;21.10;61.50;;;;;;6055580;29;20737;-46
2022/11/27 17:17:23;;;;;;;;;;;20.70;61.40;;;;;;6047077;29;20443;-49
2022/11/27 17:20:25;;;;;;;;;;;20.60;61.30;;;;;;6057676;29;19937;-48
2022/11/27 17:23:26;;;;;;;;;;;20.40;61.10;;;;;;6051949;29;20937;-47
2022/11/27 17:26:28;;;;;;;;;;;21.10;61.70;;;;;;6055446;28;19930;-46
2022/11/27 17:29:30;;;;;;;;;;;20.50;61.30;;;;;;6053257;29;19976;-47
2022/11/27 17:32:37;;;;;;;;;;;21.20;61.70;;;;;;6053459;29;19938;-49
2022/11/27 17:35:40;;;;;;;;;;;20.40;61.10;;;;;;6054804;29;20427;-47
2022/11/27 17:38:41;;;;;;;;;;;20.90;61.40;;;;;;6052942;29;20471;-47
2022/11/27 17:41:43;;;;;;;;;;;20.80;61.30;;;;;;6049095;29;20344;-46
2022/11/27 17:44:45;;;;;;;;;;;20.20;61.10;;;;;;6051701;29;19935;-46